Time;durP1;ratioP1;P1;durP2;ratioP2;P2;SDS_P1;SDS_P2;PMS_P1;PMS_P2;Temp;Humidity;BMP_temperature;BMP_pressure;BME280_temperature;BME280_humidity;BME280_pressure;Samples;Min_cycle;Max_cycle;Signal;HPM_P1;HPM_P2
2023/01/21 00:02:19;;;;;;;25.23;14.37;;;;;;;-0.33;100.00;99685.78;5051799;28;20685;-79
2023/01/21 00:04:47;;;;;;;20.67;14.27;;;;;;;-0.23;100.00;99688.28;5053402;28;20204;-78
2023/01/21 00:07:18;;;;;;;21.80;13.57;;;;;;;-0.21;100.00;99689.13;5084780;28;20195;-78
2023/01/21 00:09:48;;;;;;;25.53;14.07;;;;;;;-0.19;100.00;99696.06;5044774;28;20313;-79
2023/01/21 00:12:17;;;;;;;23.93;13.53;;;;;;;-0.27;100.00;99692.66;5048912;28;20250;-79
2023/01/21 00:14:45;;;;;;;21.80;13.80;;;;;;;-0.28;100.00;99692.69;5045105;28;20212;-78
2023/01/21 00:17:14;;;;;;;22.50;13.13;;;;;;;-0.22;100.00;99703.00;5045152;28;20204;-78
2023/01/21 00:19:43;;;;;;;20.67;12.47;;;;;;;-0.33;100.00;99701.41;5047517;28;20193;-77
2023/01/21 00:22:11;;;;;;;24.50;12.87;;;;;;;-0.54;100.00;99703.38;5047688;28;20200;-78
2023/01/21 00:24:39;;;;;;;22.43;13.43;;;;;;;-0.41;100.00;99705.81;5051379;28;20357;-78
2023/01/21 00:27:09;;;;;;;21.23;12.13;;;;;;;-0.40;100.00;99707.53;5052275;28;20244;-78
2023/01/21 00:29:38;;;;;;;22.13;12.90;;;;;;;-0.33;100.00;99713.56;5104946;28;20677;-78
2023/01/21 00:32:16;;;;;;;21.43;13.10;;;;;;;-0.33;100.00;99710.94;5097072;28;20638;-78
2023/01/21 00:34:49;;;;;;;23.43;13.27;;;;;;;-0.58;100.00;99710.31;5048859;28;20781;-78
2023/01/21 00:40:06;;;;;;;20.30;12.33;;;;;;;-0.37;100.00;99723.13;5050727;28;20196;-79
2023/01/21 00:42:36;;;;;;;25.43;14.23;;;;;;;-0.64;100.00;99724.28;5043823;28;20205;-78
2023/01/21 00:45:05;;;;;;;22.93;13.60;;;;;;;-0.53;100.00;99725.91;5043999;28;20243;-78
2023/01/21 00:47:33;;;;;;;21.50;13.83;;;;;;;-0.68;100.00;99721.72;5046225;28;20261;-78
2023/01/21 00:50:03;;;;;;;22.90;13.33;;;;;;;-0.88;100.00;99721.88;5049577;28;20216;-78
2023/01/21 00:52:32;;;;;;;23.70;13.83;;;;;;;-0.52;100.00;99722.44;5049535;28;20212;-78
2023/01/21 00:55:01;;;;;;;21.13;13.20;;;;;;;-0.79;100.00;99728.75;5048467;28;20213;-78
2023/01/21 00:57:30;;;;;;;20.93;12.93;;;;;;;-0.66;100.00;99725.19;5045795;28;20197;-78
2023/01/21 01:00:00;;;;;;;22.47;12.30;;;;;;;-0.68;100.00;99745.97;5045606;28;20201;-78
2023/01/21 01:02:35;;;;;;;20.50;12.50;;;;;;;-0.84;100.00;99736.59;5046373;28;20228;-78
2023/01/21 01:05:15;;;;;;;19.93;12.13;;;;;;;-0.90;100.00;99744.44;5042060;28;20358;-78
2023/01/21 01:07:50;;;;;;;22.07;13.00;;;;;;;-1.07;100.00;99754.97;5048350;28;20200;-78
2023/01/21 01:10:19;;;;;;;19.93;12.23;;;;;;;-1.08;100.00;99758.44;5045497;28;20692;-78
2023/01/21 01:12:47;;;;;;;21.60;13.00;;;;;;;-1.05;100.00;99767.97;5077376;28;20203;-78
2023/01/21 01:15:17;;;;;;;22.90;12.97;;;;;;;-1.32;100.00;99772.47;5088268;28;20245;-78
2023/01/21 01:17:46;;;;;;;19.67;11.60;;;;;;;-1.33;100.00;99767.31;5055534;28;20203;-78
2023/01/21 01:20:14;;;;;;;21.60;13.07;;;;;;;-1.27;100.00;99775.03;5095532;27;20195;-77
2023/01/21 01:22:44;;;;;;;23.83;14.10;;;;;;;-1.33;100.00;99783.75;5055597;28;20207;-78
2023/01/21 01:25:16;;;;;;;22.07;12.77;;;;;;;-1.13;100.00;99786.22;5086532;28;20198;-77
2023/01/21 01:27:51;;;;;;;23.33;13.67;;;;;;;-1.47;100.00;99799.41;5047744;28;20340;-78
2023/01/21 01:30:22;;;;;;;20.73;13.43;;;;;;;-1.21;100.00;99801.84;5042117;28;20189;-78
2023/01/21 01:32:52;;;;;;;22.40;13.53;;;;;;;-1.20;100.00;99802.72;5044389;28;20205;-78
2023/01/21 01:35:20;;;;;;;21.77;13.50;;;;;;;-1.10;100.00;99809.59;5044704;28;20274;-78
2023/01/21 01:37:48;;;;;;;22.60;13.77;;;;;;;-1.23;100.00;99818.34;5045904;28;20196;-78
2023/01/21 01:40:17;;;;;;;25.73;14.43;;;;;;;-1.23;100.00;99813.16;5045219;28;20205;-78
2023/01/21 01:42:46;;;;;;;23.90;13.70;;;;;;;-1.24;100.00;99820.06;4998058;28;20192;-78
2023/01/21 01:45:19;;;;;;;21.60;12.80;;;;;;;-1.06;100.00;99824.31;5052893;28;20273;-78
2023/01/21 01:47:57;;;;;;;23.77;14.17;;;;;;;-1.24;100.00;99833.06;5049996;28;20185;-78
2023/01/21 01:50:28;;;;;;;25.37;14.90;;;;;;;-1.31;100.00;99831.38;5042596;28;20199;-78
2023/01/21 01:53:00;;;;;;;27.07;15.33;;;;;;;-1.39;100.00;99832.28;5046649;28;20206;-78
2023/01/21 01:55:31;;;;;;;25.60;14.40;;;;;;;-1.40;100.00;99834.00;5040636;28;20209;-78
2023/01/21 01:58:02;;;;;;;23.87;14.53;;;;;;;-1.40;100.00;99838.34;5008793;28;20197;-79
2023/01/21 02:00:30;;;;;;;25.43;14.73;;;;;;;-1.41;100.00;99832.28;5007087;28;20250;-79
2023/01/21 02:05:48;;;;;;;26.23;14.87;;;;;;;-1.24;100.00;99850.41;5005247;28;20203;-78
2023/01/21 02:08:17;;;;;;;26.70;14.87;;;;;;;-1.26;100.00;99847.78;5066091;28;20201;-78
2023/01/21 02:10:45;;;;;;;24.57;13.63;;;;;;;-1.19;100.00;99865.06;5066071;28;20269;-79
2023/01/21 02:13:13;;;;;;;27.20;15.00;;;;;;;-1.13;100.00;99859.00;5068019;28;20196;-78
2023/01/21 02:15:53;;;;;;;24.83;14.77;;;;;;;-1.08;100.00;99864.16;5070484;28;20212;-78
2023/01/21 02:18:32;;;;;;;25.43;14.60;;;;;;;-1.06;100.00;99862.41;5070250;28;20199;-78
2023/01/21 02:21:30;;;;;;;30.13;16.70;;;;;;;-1.07;100.00;99868.47;5067058;28;20757;-78
2023/01/21 02:24:26;;;;;;;24.60;14.97;;;;;;;-0.93;100.00;99864.06;5092429;28;20191;-79
2023/01/21 02:27:21;;;;;;;25.10;14.07;;;;;;;-0.89;100.00;99868.38;5092218;28;20257;-79
2023/01/21 02:30:42;;;;;;;27.17;15.03;;;;;;;-0.94;100.00;99876.22;5092130;28;20640;-78
2023/01/21 02:33:59;;;;;;;27.70;14.47;;;;;;;-1.17;100.00;99873.72;5092118;28;20184;-78
2023/01/21 02:36:43;;;;;;;26.03;15.23;;;;;;;-1.24;100.00;99864.25;5023422;28;20222;-79
2023/01/21 02:39:20;;;;;;;23.70;14.90;;;;;;;-1.19;100.00;99870.28;5025895;28;20206;-78
2023/01/21 02:42:03;;;;;;;23.07;13.97;;;;;;;-1.05;100.00;99867.63;5074444;28;20192;-78
2023/01/21 02:44:37;;;;;;;24.03;13.80;;;;;;;-1.16;100.00;99869.38;5094816;28;20206;-78
2023/01/21 02:47:15;;;;;;;23.90;14.43;;;;;;;-1.41;100.00;99878.19;5095775;28;20199;-78
2023/01/21 02:49:49;;;;;;;26.43;15.57;;;;;;;-1.43;100.00;99867.81;5091998;28;20218;-78
2023/01/21 02:52:19;;;;;;;23.93;14.70;;;;;;;-1.51;100.00;99875.63;5092561;28;20226;-78
2023/01/21 02:54:52;;;;;;;27.60;15.07;;;;;;;-1.55;100.00;99876.47;5095370;28;20688;-78
2023/01/21 02:57:38;;;;;;;27.70;14.50;;;;;;;-1.61;100.00;99881.72;5094597;28;20249;-78
2023/01/21 03:00:12;;;;;;;26.13;14.77;;;;;;;-1.60;100.00;99885.19;5096139;28;20195;-79
2023/01/21 03:03:10;;;;;;;27.67;15.87;;;;;;;-1.60;100.00;99890.38;5091710;28;20211;-79
2023/01/21 03:06:10;;;;;;;28.17;15.93;;;;;;;-1.54;100.00;99892.97;5093367;28;20204;-79
2023/01/21 03:08:45;;;;;;;27.87;14.63;;;;;;;-1.60;100.00;99893.84;5092078;28;20199;-78
2023/01/21 03:11:16;;;;;;;29.40;15.13;;;;;;;-1.61;100.00;99894.69;5095268;28;20191;-78
2023/01/21 03:16:57;;;;;;;32.13;16.87;;;;;;;-1.55;100.00;99899.84;5095574;28;20215;-79
2023/01/21 03:19:32;;;;;;;29.00;16.67;;;;;;;-1.64;100.00;99902.50;5094638;28;20197;-79
2023/01/21 03:22:08;;;;;;;30.60;17.07;;;;;;;-1.69;100.00;99905.97;5096568;27;20312;-79
2023/01/21 03:24:37;;;;;;;28.50;16.97;;;;;;;-1.61;100.00;99907.69;5085289;28;20203;-79
2023/01/21 03:27:10;;;;;;;28.53;16.33;;;;;;;-1.62;100.00;99907.69;5093406;28;20195;-79
2023/01/21 03:29:41;;;;;;;29.37;18.27;;;;;;;-1.73;100.00;99916.38;5091759;28;20196;-79
2023/01/21 03:32:15;;;;;;;28.90;17.40;;;;;;;-1.76;100.00;99918.09;5092816;28;20195;-79
2023/01/21 03:34:47;;;;;;;31.80;17.17;;;;;;;-1.70;100.00;99915.50;5089426;28;20184;-79
2023/01/21 03:37:23;;;;;;;28.53;16.67;;;;;;;-1.79;100.00;99926.78;5093362;28;20241;-78
2023/01/21 03:40:00;;;;;;;33.57;17.97;;;;;;;-1.77;100.00;99918.97;5085954;28;20199;-79
2023/01/21 03:42:29;;;;;;;31.10;17.57;;;;;;;-1.78;100.00;99919.84;5090139;28;20257;-78
2023/01/21 03:44:59;;;;;;;32.87;18.57;;;;;;;-1.74;100.00;99921.56;5093642;28;20199;-79
2023/01/21 03:47:32;;;;;;;35.43;18.67;;;;;;;-1.76;100.00;99923.28;5093498;28;20221;-79
2023/01/21 03:50:05;;;;;;;33.20;18.40;;;;;;;-1.70;100.00;99927.63;5094399;28;20191;-79
2023/01/21 03:52:39;;;;;;;31.13;18.77;;;;;;;-1.83;100.00;99932.00;5093116;28;20210;-79
2023/01/21 03:55:09;;;;;;;33.63;19.13;;;;;;;-1.94;100.00;99934.56;5093794;28;20196;-79
2023/01/21 03:57:37;;;;;;;35.37;19.47;;;;;;;-1.89;100.00;99927.66;5094264;28;20265;-79
2023/01/21 04:00:08;;;;;;;32.93;19.00;;;;;;;-2.00;100.00;99933.72;5091622;28;20199;-79
2023/01/21 04:02:36;;;;;;;31.77;19.10;;;;;;;-2.06;100.00;99938.03;5094437;28;20275;-79
2023/01/21 04:05:05;;;;;;;33.90;19.63;;;;;;;-2.08;100.00;99934.59;5093472;28;20192;-79
2023/01/21 04:07:38;;;;;;;32.57;19.30;;;;;;;-1.99;100.00;99938.06;5090109;28;20290;-79
2023/01/21 04:10:09;;;;;;;33.83;17.63;;;;;;;-1.97;100.00;99944.97;5091632;28;20714;-79
2023/01/21 04:12:38;;;;;;;34.10;19.00;;;;;;;-2.00;100.00;99950.16;5091109;28;20256;-79
2023/01/21 04:15:08;;;;;;;30.53;18.23;;;;;;;-2.05;100.00;99950.16;5096366;27;20204;-78
2023/01/21 04:17:36;;;;;;;33.00;17.70;;;;;;;-2.02;100.00;99951.91;5089366;28;20243;-79
2023/01/21 04:20:07;;;;;;;32.63;18.43;;;;;;;-2.09;100.00;99953.63;5093398;28;20648;-79
2023/01/21 04:22:37;;;;;;;29.73;17.50;;;;;;;-2.13;100.00;99956.19;5092383;28;20191;-79
2023/01/21 04:25:06;;;;;;;30.20;17.40;;;;;;;-2.19;100.00;99943.25;5093893;28;20256;-78
2023/01/21 04:27:36;;;;;;;31.30;16.97;;;;;;;-2.23;100.00;99947.56;5093647;28;20198;-78
2023/01/21 04:30:05;;;;;;;32.70;17.43;;;;;;;-2.25;100.00;99949.28;5086431;28;20253;-79
2023/01/21 04:32:36;;;;;;;30.53;17.37;;;;;;;-2.21;100.00;99945.84;5090418;28;20203;-78
2023/01/21 04:35:05;;;;;;;28.83;17.13;;;;;;;-2.19;100.00;99946.72;5090181;28;20195;-79
2023/01/21 04:37:33;;;;;;;27.77;17.10;;;;;;;-2.25;100.00;99946.69;5083533;28;20674;-78
2023/01/21 04:40:06;;;;;;;31.57;17.90;;;;;;;-2.26;100.00;99957.94;5083216;28;20206;-78
2023/01/21 04:42:34;;;;;;;31.53;16.93;;;;;;;-2.23;100.00;99957.94;5093496;28;20279;-78
2023/01/21 04:45:09;;;;;;;29.53;16.47;;;;;;;-2.25;100.00;99958.81;5089761;28;20222;-79
2023/01/21 04:47:41;;;;;;;30.63;16.90;;;;;;;-2.24;100.00;99961.38;5075253;28;20215;-79
2023/01/21 04:50:11;;;;;;;32.40;17.63;;;;;;;-2.24;100.00;99963.13;5093590;28;20195;-79
2023/01/21 04:52:40;;;;;;;33.83;17.60;;;;;;;-2.25;100.00;99959.66;5090614;28;20215;-79
2023/01/21 04:55:11;;;;;;;31.87;16.70;;;;;;;-2.17;100.00;99960.53;5085327;28;20234;-79
2023/01/21 04:57:40;;;;;;;28.27;16.53;;;;;;;-2.21;100.00;99965.75;5091673;28;20221;-79
2023/01/21 05:00:09;;;;;;;28.13;16.73;;;;;;;-2.17;100.00;99967.47;5091059;28;20188;-79
2023/01/21 05:02:38;;;;;;;30.90;16.70;;;;;;;-2.18;100.00;99965.72;5093170;28;20208;-79
2023/01/21 05:05:07;;;;;;;26.70;15.90;;;;;;;-2.23;100.00;99970.03;5090313;28;20272;-79
2023/01/21 05:07:35;;;;;;;25.30;15.80;;;;;;;-2.18;100.00;99961.41;5054215;28;20244;-79
2023/01/21 05:10:07;;;;;;;26.43;15.93;;;;;;;-2.20;100.00;99967.47;5088466;28;20192;-79
2023/01/21 05:12:44;;;;;;;26.67;15.10;;;;;;;-2.30;100.00;99976.97;5050272;28;20247;-79
2023/01/21 05:15:13;;;;;;;28.63;15.67;;;;;;;-2.36;100.00;99971.78;5039510;28;20196;-79
2023/01/21 05:17:41;;;;;;;27.53;15.77;;;;;;;-2.50;100.00;99978.69;5039331;28;20224;-79
2023/01/21 05:20:13;;;;;;;27.70;15.17;;;;;;;-2.59;100.00;99974.34;5044158;28;20231;-79
2023/01/21 05:22:41;;;;;;;28.03;15.77;;;;;;;-2.74;100.00;99979.47;5040140;28;20193;-79
2023/01/21 05:25:14;;;;;;;27.77;15.63;;;;;;;-2.93;100.00;99974.22;5045829;28;20238;-78
2023/01/21 05:27:50;;;;;;;25.03;14.77;;;;;;;-2.95;100.00;99975.09;5045814;28;20205;-79
2023/01/21 05:30:21;;;;;;;27.93;15.77;;;;;;;-2.79;100.00;99971.69;5046472;28;20196;-79
2023/01/21 05:32:51;;;;;;;26.17;14.80;;;;;;;-2.73;100.00;99976.00;5047679;28;20201;-79
2023/01/21 05:35:20;;;;;;;26.37;14.00;;;;;;;-2.81;100.00;99975.97;5047538;28;20219;-78
2023/01/21 05:37:48;;;;;;;25.90;13.93;;;;;;;-2.86;100.00;99976.84;5083212;28;20253;-79
2023/01/21 05:40:18;;;;;;;28.30;15.20;;;;;;;-2.94;100.00;99980.28;5092542;28;20187;-79
2023/01/21 05:42:48;;;;;;;25.93;15.03;;;;;;;-2.74;100.00;99982.06;5095009;28;20245;-78
2023/01/21 05:45:19;;;;;;;25.67;14.20;;;;;;;-2.79;100.00;99971.69;5093264;28;20200;-79
2023/01/21 05:47:47;;;;;;;27.30;15.40;;;;;;;-3.03;100.00;99979.38;5089005;28;20673;-79
2023/01/21 05:50:16;;;;;;;27.63;15.17;;;;;;;-2.89;100.00;99983.75;5085360;28;20211;-79
2023/01/21 05:52:44;;;;;;;27.77;14.70;;;;;;;-2.91;100.00;99980.28;5090938;28;20200;-78
2023/01/21 05:55:13;;;;;;;28.07;14.30;;;;;;;-2.82;100.00;99981.16;5087813;28;20356;-78
2023/01/21 05:57:41;;;;;;;29.17;15.97;;;;;;;-2.85;100.00;99982.03;5088565;28;20292;-78
2023/01/21 06:00:19;;;;;;;25.27;14.03;;;;;;;-2.90;100.00;99992.38;5027480;28;20201;-79
2023/01/21 06:02:49;;;;;;;27.03;15.40;;;;;;;-2.83;100.00;99990.66;5024040;28;20209;-78
2023/01/21 06:05:18;;;;;;;26.20;15.57;;;;;;;-2.91;100.00;99994.97;5024563;28;20194;-78
2023/01/21 06:07:46;;;;;;;31.63;17.37;;;;;;;-2.93;100.00;99994.97;4946456;28;20672;-78
2023/01/21 06:10:16;;;;;;;30.67;16.97;;;;;;;-3.03;100.00;100011.31;4891169;29;20210;-78
2023/01/21 06:12:47;;;;;;;29.23;17.40;;;;;;;-2.95;100.00;100008.78;4891938;29;20254;-78
2023/01/21 06:15:17;;;;;;;33.17;17.50;;;;;;;-2.89;100.00;100020.03;4890064;29;20210;-78
2023/01/21 06:17:45;;;;;;;30.23;16.80;;;;;;;-2.93;100.00;100022.59;4912700;28;20337;-79
2023/01/21 06:20:16;;;;;;;34.07;18.87;;;;;;;-2.81;100.00;100016.59;4941084;28;20196;-78
2023/01/21 06:22:47;;;;;;;35.87;18.53;;;;;;;-2.77;100.00;100023.53;4965702;28;20203;-78
2023/01/21 06:25:16;;;;;;;42.27;23.57;;;;;;;-2.72;100.00;100016.63;4982039;28;20209;-78
2023/01/21 06:27:45;;;;;;;30.47;17.87;;;;;;;-2.70;100.00;100020.09;5054137;28;20200;-78
2023/01/21 06:30:14;;;;;;;31.67;18.20;;;;;;;-2.70;100.00;100022.69;5009270;28;20217;-78
2023/01/21 06:32:44;;;;;;;34.33;18.80;;;;;;;-2.57;100.00;100027.06;5013817;28;20203;-78
2023/01/21 06:35:12;;;;;;;33.97;19.40;;;;;;;-2.55;100.00;100032.25;5011291;28;20194;-78
2023/01/21 06:37:42;;;;;;;45.70;22.03;;;;;;;-2.48;100.00;100031.41;5002770;28;20206;-78
2023/01/21 06:40:12;;;;;;;33.47;19.03;;;;;;;-2.58;100.00;100035.69;5007454;28;20461;-79
2023/01/21 06:42:46;;;;;;;41.50;23.73;;;;;;;-2.56;100.00;100036.56;5008462;28;20198;-79
2023/01/21 06:45:20;;;;;;;38.87;21.53;;;;;;;-2.46;100.00;100047.84;5008219;28;20646;-78
2023/01/21 06:47:51;;;;;;;35.60;19.00;;;;;;;-2.46;100.00;100053.03;5013594;28;20201;-78
2023/01/21 06:50:19;;;;;;;33.33;18.73;;;;;;;-2.51;100.00;100049.53;5010533;28;20198;-78
2023/01/21 06:52:49;;;;;;;38.67;24.47;;;;;;;-2.40;100.00;100055.66;5010214;28;20190;-79
2023/01/21 06:55:20;;;;;;;34.47;17.57;;;;;;;-2.34;100.00;100056.50;5011154;28;20214;-78
2023/01/21 06:57:48;;;;;;;30.23;16.43;;;;;;;-2.27;100.00;100053.94;5013584;28;20202;-79
2023/01/21 07:00:18;;;;;;;33.87;17.70;;;;;;;-2.22;100.00;100062.56;5007864;28;20194;-79
2023/01/21 07:02:47;;;;;;;32.37;17.90;;;;;;;-2.23;100.00;100059.13;5096704;27;20192;-81
2023/01/21 07:05:19;;;;;;;34.27;17.17;;;;;;;-2.17;100.00;100061.72;5095670;28;20207;-79
2023/01/21 07:07:49;;;;;;;30.90;16.90;;;;;;;-2.09;100.00;100069.53;5091883;28;20188;-79
2023/01/21 07:10:18;;;;;;;31.83;16.93;;;;;;;-1.95;100.00;100061.75;5094857;28;20203;-78
2023/01/21 07:12:46;;;;;;;33.87;18.07;;;;;;;-1.97;100.00;100072.16;5092249;28;20220;-78
2023/01/21 07:15:15;;;;;;;30.90;17.60;;;;;;;-1.97;100.00;100072.16;5090405;28;20232;-78
2023/01/21 07:17:45;;;;;;;29.47;17.20;;;;;;;-1.83;100.00;100083.44;5093966;28;20219;-79
2023/01/21 07:20:13;;;;;;;30.83;17.00;;;;;;;-1.89;100.00;100085.13;5088521;28;20273;-79
2023/01/21 07:22:43;;;;;;;35.70;16.63;;;;;;;-1.73;100.00;100092.09;5091201;28;20188;-79
2023/01/21 07:25:12;;;;;;;27.07;15.87;;;;;;;-1.52;100.00;100080.84;5089926;28;20688;-78
2023/01/21 07:27:41;;;;;;;26.63;15.53;;;;;;;-1.49;100.00;100083.41;5089772;28;20196;-79
2023/01/21 07:30:15;;;;;;;27.50;14.70;;;;;;;-1.45;100.00;100088.63;5093264;28;20192;-79
2023/01/21 07:32:44;;;;;;;28.70;15.17;;;;;;;-1.38;100.00;100084.28;5092087;28;20195;-78
2023/01/21 07:35:13;;;;;;;26.70;15.37;;;;;;;-1.51;100.00;100082.56;5090177;28;20191;-79
2023/01/21 07:37:44;;;;;;;28.20;15.90;;;;;;;-1.53;100.00;100079.97;5090974;28;20187;-79
2023/01/21 07:40:13;;;;;;;29.33;16.27;;;;;;;-1.49;100.00;100088.63;5092500;28;20215;-79
2023/01/21 07:42:42;;;;;;;26.27;14.93;;;;;;;-1.52;100.00;100084.28;5094245;28;20188;-79
2023/01/21 07:45:11;;;;;;;31.23;15.73;;;;;;;-1.39;100.00;100092.06;5089266;28;20191;-78
2023/01/21 07:47:39;;;;;;;27.63;15.77;;;;;;;-1.30;100.00;100100.72;5093481;28;20210;-79
2023/01/21 07:50:09;;;;;;;25.80;14.73;;;;;;;-1.26;100.00;100098.97;5056525;28;20196;-78
2023/01/21 07:52:39;;;;;;;27.77;15.87;;;;;;;-1.31;100.00;100101.59;5086029;28;20290;-78
2023/01/21 07:55:10;;;;;;;25.07;13.93;;;;;;;-1.24;100.00;100105.94;5031765;28;20205;-79
2023/01/21 07:57:39;;;;;;;25.90;14.43;;;;;;;-1.18;100.00;100102.44;5028063;28;20281;-79
2023/01/21 08:00:09;;;;;;;25.67;14.47;;;;;;;-1.29;100.00;100097.25;5029171;28;20224;-78
2023/01/21 08:02:38;;;;;;;22.43;12.97;;;;;;;-1.18;100.00;100103.31;5026754;28;20256;-78
2023/01/21 08:05:08;;;;;;;28.03;16.20;;;;;;;-1.22;100.00;100106.78;5026929;28;20193;-78
2023/01/21 08:07:37;;;;;;;28.07;14.57;;;;;;;-1.12;100.00;100109.38;4981786;28;20235;-79
2023/01/21 08:10:05;;;;;;;23.40;13.57;;;;;;;-1.11;100.00;100114.56;5013518;28;20198;-79
2023/01/21 08:12:36;;;;;;;26.27;13.73;;;;;;;-1.08;100.00;100105.88;5038367;28;20200;-78
2023/01/21 08:15:05;;;;;;;22.50;13.40;;;;;;;-1.26;100.00;100105.03;5096386;27;20719;-79
2023/01/21 08:17:33;;;;;;;20.63;11.63;;;;;;;-1.26;100.00;100117.16;5091971;28;20217;-79
2023/01/21 08:20:02;;;;;;;31.30;16.17;;;;;;;-1.26;100.00;100109.38;5071086;28;20216;-79
2023/01/21 08:22:32;;;;;;;21.97;12.07;;;;;;;-1.16;100.00;100113.69;5070098;28;20192;-79
2023/01/21 08:25:00;;;;;;;21.77;12.80;;;;;;;-1.16;100.00;100113.69;5066115;28;20200;-79
2023/01/21 08:27:29;;;;;;;22.60;12.53;;;;;;;-1.04;100.00;100113.69;5070525;28;20191;-79
2023/01/21 08:30:00;;;;;;;20.93;11.93;;;;;;;-1.02;100.00;100119.75;5067648;28;20687;-79
2023/01/21 08:32:30;;;;;;;24.67;12.50;;;;;;;-1.07;100.00;100123.22;5068593;28;20236;-79
2023/01/21 08:34:59;;;;;;;23.67;12.67;;;;;;;-1.17;100.00;100127.56;5039842;28;20205;-79
2023/01/21 08:37:27;;;;;;;26.87;13.70;;;;;;;-1.03;100.00;100119.75;5073738;28;20188;-79
2023/01/21 08:39:55;;;;;;;25.70;12.57;;;;;;;-0.94;100.00;100120.59;5093420;28;20222;-79
2023/01/21 08:42:23;;;;;;;23.87;14.77;;;;;;;-1.10;100.00;100121.50;5085935;28;20212;-79
2023/01/21 08:44:52;;;;;;;24.57;13.17;;;;;;;-0.98;100.00;100118.88;5091460;28;20318;-79
2023/01/21 08:47:25;;;;;;;20.37;12.00;;;;;;;-0.83;100.00;100135.31;5089806;28;20207;-79
2023/01/21 08:49:55;;;;;;;26.17;13.43;;;;;;;-0.94;100.00;100132.75;5089201;28;20199;-79
2023/01/21 08:52:23;;;;;;;22.50;13.47;;;;;;;-0.92;100.00;100129.25;5085098;28;20240;-79
2023/01/21 08:54:53;;;;;;;23.80;14.30;;;;;;;-0.96;100.00;100131.88;5089944;28;20191;-79
2023/01/21 08:57:22;;;;;;;22.70;13.17;;;;;;;-0.84;100.00;100131.00;5050204;28;20194;-79
2023/01/21 08:59:50;;;;;;;25.33;13.40;;;;;;;-0.74;100.00;100137.91;5089197;28;20223;-79
2023/01/21 09:02:18;;;;;;;20.90;12.33;;;;;;;-0.86;100.00;100141.41;5087524;28;20219;-79
2023/01/21 09:04:49;;;;;;;18.47;11.87;;;;;;;-0.76;100.00;100143.13;5087684;28;20192;-79
2023/01/21 09:07:25;;;;;;;22.10;13.60;;;;;;;-0.71;100.00;100138.75;5087191;28;20203;-79
2023/01/21 09:09:54;;;;;;;24.23;12.27;;;;;;;-0.69;100.00;100137.00;5027217;28;20320;-78
2023/01/21 09:12:24;;;;;;;18.47;11.63;;;;;;;-0.62;100.00;100137.84;5021107;28;20197;-79
2023/01/21 09:14:54;;;;;;;22.30;12.27;;;;;;;-0.54;100.00;100145.66;5020728;28;20189;-79
2023/01/21 09:17:23;;;;;;;17.70;11.37;;;;;;;-0.42;100.00;100143.00;5011423;28;20288;-79
2023/01/21 09:19:53;;;;;;;20.50;11.73;;;;;;;-0.61;100.00;100148.25;5029423;28;20296;-78
2023/01/21 09:22:22;;;;;;;32.73;16.43;;;;;;;-0.50;100.00;100152.56;4984257;28;20207;-79
2023/01/21 09:24:54;;;;;;;30.93;17.73;;;;;;;-0.43;100.00;100149.06;4970444;28;20246;-79
2023/01/21 09:27:26;;;;;;;27.07;14.80;;;;;;;-0.42;100.00;100151.66;4977721;28;20206;-79
2023/01/21 09:29:54;;;;;;;19.30;11.73;;;;;;;-0.43;100.00;100159.47;5006248;28;20242;-78
2023/01/21 09:32:23;;;;;;;20.90;12.30;;;;;;;-0.33;100.00;100161.19;5009792;28;20249;-79
2023/01/21 09:34:53;;;;;;;18.20;10.80;;;;;;;-0.38;100.00;100165.56;5002464;28;20281;-79
2023/01/21 09:37:22;;;;;;;19.40;12.13;;;;;;;-0.36;100.00;100172.47;5008470;28;20672;-79
2023/01/21 09:39:50;;;;;;;20.27;11.03;;;;;;;-0.34;100.00;100175.94;5020641;28;20212;-78
2023/01/21 09:42:22;;;;;;;20.87;11.27;;;;;;;-0.33;100.00;100171.59;5060799;28;20200;-78
2023/01/21 09:44:57;;;;;;;19.73;11.23;;;;;;;-0.34;100.00;100178.53;5086650;28;20242;-79
2023/01/21 09:47:31;;;;;;;19.10;12.50;;;;;;;-0.31;100.00;100182.84;5082771;28;20199;-79
2023/01/21 09:50:05;;;;;;;19.50;12.10;;;;;;;-0.41;100.00;100187.22;5087971;28;20192;-78
2023/01/21 09:52:39;;;;;;;20.00;11.73;;;;;;;-0.43;100.00;100186.38;5087345;28;20199;-78
2023/01/21 09:55:16;;;;;;;16.33;11.10;;;;;;;-0.41;100.00;100197.63;5096694;28;20195;-79
2023/01/21 09:58:14;;;;;;;21.30;12.17;;;;;;;-0.43;100.00;100194.19;5092014;28;20225;-78
2023/01/21 10:00:48;;;;;;;17.53;10.73;;;;;;;-0.38;100.00;100197.66;5086319;28;20231;-79
2023/01/21 10:03:28;;;;;;;22.43;11.97;;;;;;;-0.26;100.00;100201.06;5090981;28;20188;-78
2023/01/21 10:06:13;;;;;;;17.70;11.03;;;;;;;-0.36;100.00;100211.50;5092261;28;20207;-78
2023/01/21 10:12:37;;;;;;;17.57;10.20;;;;;;;-0.32;100.00;100197.59;5096169;28;20272;-78
2023/01/21 10:15:56;;;;;;;14.63;10.03;;;;;;;-0.32;100.00;100195.00;5096800;28;20638;-79
2023/01/21 10:19:08;;;;;;;17.77;10.40;;;;;;;-0.32;100.00;100192.41;5095098;27;20200;-78
2023/01/21 10:24:51;;;;;;;15.67;9.53;;;;;;;-0.27;100.00;100194.16;5094299;28;20692;-79
2023/01/21 10:27:38;;;;;;;15.57;10.90;;;;;;;-0.42;100.00;100190.69;5051378;28;20211;-78
2023/01/21 10:30:26;;;;;;;18.20;10.13;;;;;;;-0.15;100.00;100197.56;5050520;28;20197;-77
2023/01/21 10:32:56;;;;;;;16.23;10.00;;;;;;;-0.20;100.00;100194.09;5052670;28;20209;-78
2023/01/21 10:35:38;;;;;;;14.37;8.63;;;;;;;-0.14;100.00;100194.06;5048850;28;20235;-79
2023/01/21 10:38:37;;;;;;;15.43;8.63;;;;;;;-0.26;100.00;100185.47;5046380;28;20201;-78
2023/01/21 10:44:52;;;;;;;12.30;8.03;;;;;;;-0.18;100.00;100191.50;5053100;28;20439;-78
2023/01/21 10:47:41;;;;;;;14.23;8.10;;;;;;;-0.17;100.00;100190.63;4993817;28;20294;-79
2023/01/21 10:50:27;;;;;;;15.27;8.90;;;;;;;-0.12;100.00;100196.66;5048289;28;20201;-78
2023/01/21 10:53:02;;;;;;;13.80;8.37;;;;;;;-0.09;100.00;100194.06;5086653;28;20245;-78
2023/01/21 10:55:43;;;;;;;13.17;8.60;;;;;;;-0.14;100.00;100196.69;5090797;28;20331;-78
2023/01/21 11:02:07;;;;;;;11.53;7.90;;;;;;;-0.08;100.00;100182.78;5077507;28;20276;-78
2023/01/21 11:07:46;;;;;;;13.17;7.83;;;;;;;-0.02;100.00;100173.19;5093684;28;20230;-78
2023/01/21 11:10:20;;;;;;;12.80;8.40;;;;;;;-0.06;100.00;100166.28;5090218;28;20191;-78
2023/01/21 11:12:50;;;;;;;10.20;6.90;;;;;;;-0.03;100.00;100174.06;5094585;28;20195;-78
2023/01/21 11:15:21;;;;;;;13.37;8.27;;;;;;;0.02;100.00;100178.41;5091969;28;20188;-79
2023/01/21 11:17:55;;;;;;;12.07;7.80;;;;;;;0.14;100.00;100181.81;5092212;28;20194;-79
2023/01/21 11:21:07;;;;;;;11.53;7.07;;;;;;;0.10;100.00;100174.03;5094130;28;20215;-78
2023/01/21 11:23:52;;;;;;;12.53;8.60;;;;;;;0.13;100.00;100179.22;5050301;28;20252;-78
2023/01/21 11:26:28;;;;;;;22.27;10.93;;;;;;;0.16;100.00;100167.03;5048241;28;20196;-78
2023/01/21 11:29:13;;;;;;;11.67;7.73;;;;;;;0.01;100.00;100176.69;5011263;28;20285;-78
2023/01/21 11:31:46;;;;;;;11.03;7.23;;;;;;;0.34;100.00;100175.59;5012814;28;20330;-79
2023/01/21 11:34:17;;;;;;;12.50;7.93;;;;;;;0.43;100.00;100172.94;4990233;28;20195;-79
2023/01/21 11:37:00;;;;;;;11.33;7.90;;;;;;;0.22;100.00;100179.16;4989735;28;20199;-79
2023/01/21 11:39:30;;;;;;;11.80;7.47;;;;;;;0.25;100.00;100184.34;4992985;28;20187;-79
2023/01/21 11:42:04;;;;;;;11.07;7.40;;;;;;;0.23;100.00;100189.56;4977843;28;20219;-78
2023/01/21 11:44:36;;;;;;;12.97;8.50;;;;;;;0.36;100.00;100184.28;4987722;28;20197;-78
2023/01/21 11:47:30;;;;;;;11.77;7.60;;;;;;;0.50;100.00;100190.28;4988992;28;20202;-78
2023/01/21 11:50:13;;;;;;;11.07;7.30;;;;;;;0.44;100.00;100179.88;5049077;28;20668;-79
2023/01/21 11:52:42;;;;;;;10.23;7.07;;;;;;;0.43;100.00;100183.38;5064608;28;20200;-78
2023/01/21 11:55:23;;;;;;;13.10;7.97;;;;;;;0.48;100.00;100185.09;5069923;28;20615;-79
2023/01/21 11:57:53;;;;;;;8.53;5.43;;;;;;;0.49;100.00;100183.34;5053312;28;20355;-79
2023/01/21 12:00:27;;;;;;;10.57;6.63;;;;;;;0.58;100.00;100172.84;5084248;28;20188;-79